Time;durP1;ratioP1;P1;durP2;ratioP2;P2;SDS_P1;SDS_P2;PMS_P1;PMS_P2;Temp;Humidity;BMP_temperature;BMP_pressure;BME280_temperature;BME280_humidity;BME280_pressure;Samples;Min_cycle;Max_cycle;Signal;HPM_P1;HPM_P2
2022/04/11 00:02:00;;;;;;;2.50;1.27;;;3.60;99.90;;;;;;5033426;28;20041;-50
2022/04/11 00:04:26;;;;;;;4.25;1.25;;;3.60;99.90;;;;;;5039710;28;20558;-51
2022/04/11 00:06:52;;;;;;;1.10;0.70;;;3.50;99.90;;;;;;5037163;28;20466;-50
2022/04/11 00:09:18;;;;;;;2.03;1.23;;;3.50;99.90;;;;;;5049067;28;20104;-52
2022/04/11 00:11:43;;;;;;;1.67;1.43;;;3.50;99.90;;;;;;5040277;28;20294;-52
2022/04/11 00:14:09;;;;;;;2.20;1.37;;;3.50;99.90;;;;;;5034646;28;20033;-50
2022/04/11 00:16:34;;;;;;;1.77;1.20;;;3.40;99.90;;;;;;5038950;28;20040;-50
2022/04/11 00:19:00;;;;;;;1.23;1.00;;;3.40;99.90;;;;;;5049683;28;20083;-50
2022/04/11 00:21:26;;;;;;;2.27;0.87;;;3.30;99.90;;;;;;5040051;28;20045;-51
2022/04/11 00:23:51;;;;;;;1.40;0.73;;;3.30;99.90;;;;;;5040985;28;20045;-50
2022/04/11 00:26:17;;;;;;;1.33;1.10;;;3.30;99.90;;;;;;5041828;28;20049;-50
2022/04/11 00:28:42;;;;;;;1.53;1.00;;;3.20;99.90;;;;;;5029437;28;20029;-50
2022/04/11 00:31:08;;;;;;;1.90;1.27;;;3.10;99.90;;;;;;5033985;28;20494;-50
2022/04/11 00:33:33;;;;;;;2.87;1.47;;;3.10;99.90;;;;;;5037644;28;20495;-51
2022/04/11 00:35:59;;;;;;;4.83;1.17;;;3.10;99.90;;;;;;5044717;28;20032;-50
2022/04/11 00:38:24;;;;;;;2.53;1.30;;;3.10;99.90;;;;;;5033878;28;20341;-49
2022/04/11 00:40:50;;;;;;;2.07;1.10;;;3.10;99.90;;;;;;5046736;28;20048;-50
2022/04/11 00:43:32;;;;;;;5.00;1.23;;;3.10;99.90;;;;;;5029824;28;20077;-50
2022/04/11 00:45:58;;;;;;;3.90;1.48;;;3.10;99.90;;;;;;5036109;28;20064;-52
2022/04/11 00:48:23;;;;;;;3.78;1.52;;;3.00;99.90;;;;;;5029289;28;20038;-51
2022/04/11 00:50:52;;;;;;;2.33;1.37;;;3.00;99.90;;;;;;5029204;28;20113;-50
2022/04/11 00:53:17;;;;;;;3.78;1.13;;;3.00;99.90;;;;;;5048136;28;20040;-50
2022/04/11 00:55:43;;;;;;;2.37;1.07;;;3.00;99.90;;;;;;5038608;28;20537;-50
2022/04/11 00:58:09;;;;;;;1.67;1.23;;;2.90;99.90;;;;;;5047900;28;20041;-50
2022/04/11 01:00:36;;;;;;;5.13;2.07;;;2.90;99.90;;;;;;5049061;28;20528;-50
2022/04/11 01:03:02;;;;;;;3.33;0.98;;;2.90;99.90;;;;;;5031485;28;20479;-51
2022/04/11 01:05:27;;;;;;;3.97;1.33;;;2.90;99.90;;;;;;5030387;28;20120;-50
2022/04/11 01:07:55;;;;;;;1.77;1.00;;;2.90;99.90;;;;;;5045164;28;20045;-52
2022/04/11 01:10:20;;;;;;;1.52;1.05;;;2.80;99.90;;;;;;5048517;28;20048;-53
2022/04/11 01:12:46;;;;;;;5.93;1.40;;;2.80;99.90;;;;;;5035870;28;20046;-52
2022/04/11 01:15:12;;;;;;;5.95;1.17;;;2.80;99.90;;;;;;5033839;28;20080;-50
2022/04/11 01:17:39;;;;;;;5.07;0.90;;;2.80;99.90;;;;;;5045261;28;20302;-50
2022/04/11 01:20:11;;;;;;;2.78;1.10;;;2.80;99.90;;;;;;5051926;28;20056;-52
2022/04/11 01:22:38;;;;;;;2.97;0.80;;;2.80;99.90;;;;;;5040302;28;20422;-50
2022/04/11 01:25:03;;;;;;;;;;;2.80;99.90;;;;;;5034082;28;20056;-51
2022/04/11 01:27:31;;;;;;;3.20;1.10;;;2.70;99.90;;;;;;5042783;28;19924;-52
2022/04/11 01:29:57;;;;;;;3.97;1.30;;;2.70;99.90;;;;;;5051752;28;20044;-53
2022/04/11 01:32:22;;;;;;;1.33;0.90;;;2.70;99.90;;;;;;5040273;28;20040;-54
2022/04/11 01:34:48;;;;;;;2.23;0.80;;;2.70;99.90;;;;;;5050057;28;20291;-53
2022/04/11 01:37:13;;;;;;;2.80;1.10;;;2.60;99.90;;;;;;5044298;28;20044;-53
2022/04/11 01:39:39;;;;;;;2.63;1.30;;;2.60;99.90;;;;;;5050939;28;20053;-52
2022/04/11 01:42:05;;;;;;;3.27;1.07;;;2.70;99.90;;;;;;5046451;28;20041;-53
2022/04/11 01:44:30;;;;;;;3.03;1.23;;;2.70;99.90;;;;;;5046088;28;20498;-54
2022/04/11 01:46:56;;;;;;;1.60;0.80;;;2.60;99.90;;;;;;5043464;28;20319;-53
2022/04/11 01:49:21;;;;;;;2.53;0.80;;;2.70;99.90;;;;;;5032094;28;20518;-52
2022/04/11 01:51:47;;;;;;;4.50;1.00;;;2.60;99.90;;;;;;5031726;28;20037;-53
2022/04/11 01:54:12;;;;;;;2.60;1.33;;;2.60;99.90;;;;;;5036146;28;20151;-50
2022/04/11 01:56:38;;;;;;;2.77;0.67;;;2.60;99.90;;;;;;5032526;28;20068;-49
2022/04/11 01:59:03;;;;;;;3.60;1.37;;;2.60;99.90;;;;;;5031275;28;20069;-50
2022/04/11 02:01:29;;;;;;;2.70;1.50;;;2.60;99.90;;;;;;5033304;28;20149;-50
2022/04/11 02:03:54;;;;;;;2.63;1.00;;;2.50;99.90;;;;;;5051623;28;20052;-50
2022/04/11 02:06:20;;;;;;;4.67;1.00;;;2.50;99.90;;;;;;5050910;28;20505;-50
2022/04/11 02:08:46;;;;;;;1.83;0.93;;;2.50;99.90;;;;;;5048853;28;20470;-50
2022/04/11 02:11:11;;;;;;;3.03;1.03;;;2.50;99.90;;;;;;5051502;28;20052;-49
2022/04/11 02:13:37;;;;;;;3.40;1.50;;;2.50;99.90;;;;;;5043365;28;20040;-50
2022/04/11 02:16:03;;;;;;;7.00;1.17;;;2.50;99.90;;;;;;5049401;28;20120;-52
2022/04/11 02:18:28;;;;;;;6.22;2.05;;;2.50;99.90;;;;;;5035150;28;20041;-50
2022/04/11 02:20:54;;;;;;;3.30;1.80;;;2.50;99.90;;;;;;5031791;28;20049;-49
2022/04/11 02:23:20;;;;;;;5.63;2.07;;;2.50;99.90;;;;;;5042823;28;20045;-49
2022/04/11 02:25:45;;;;;;;2.50;1.50;;;2.50;99.90;;;;;;5049725;28;20179;-50
2022/04/11 02:28:11;;;;;;;1.00;0.57;;;2.40;99.90;;;;;;5048888;28;20040;-50
2022/04/11 02:30:36;;;;;;;1.30;1.00;;;2.30;99.90;;;;;;5050746;28;20132;-51
2022/04/11 02:33:02;;;;;;;5.70;1.63;;;2.30;99.90;;;;;;5045498;28;20028;-50
2022/04/11 02:35:28;;;;;;;1.93;1.50;;;2.30;99.90;;;;;;5050786;28;20139;-49
2022/04/11 02:37:53;;;;;;;4.53;3.13;;;2.30;99.90;;;;;;5047993;28;20125;-51
2022/04/11 02:40:19;;;;;;;4.73;1.70;;;2.20;99.90;;;;;;5050755;28;20049;-50
2022/04/11 02:42:46;;;;;;;2.30;2.10;;;2.20;99.90;;;;;;5045945;28;20449;-49
2022/04/11 02:45:12;;;;;;;5.00;2.47;;;2.20;99.90;;;;;;5050361;28;20350;-50
2022/04/11 02:47:38;;;;;;;3.92;2.15;;;2.20;99.90;;;;;;5047894;28;20383;-50
2022/04/11 02:50:05;;;;;;;8.27;2.85;;;2.20;99.90;;;;;;5050044;28;20032;-49
2022/04/11 02:52:30;;;;;;;9.88;3.35;;;2.20;99.90;;;;;;5031247;28;20406;-50
2022/04/11 02:54:56;;;;;;;5.00;2.80;;;2.20;99.90;;;;;;5029375;28;20042;-51
2022/04/11 02:57:25;;;;;;;3.67;2.70;;;2.20;99.90;;;;;;5038098;28;20047;-51
2022/04/11 02:59:51;;;;;;;4.57;2.15;;;2.20;99.90;;;;;;5037059;28;20045;-50
2022/04/11 03:02:17;;;;;;;;;;;2.20;99.90;;;;;;5038249;28;20032;-50
2022/04/11 03:04:43;;;;;;;3.85;1.90;;;2.20;99.90;;;;;;5044556;28;19923;-52
2022/04/11 03:07:09;;;;;;;3.20;2.47;;;2.20;99.90;;;;;;5043728;28;20034;-50
2022/04/11 03:09:34;;;;;;;2.87;2.23;;;2.30;99.90;;;;;;5031900;28;20444;-51
2022/04/11 03:12:00;;;;;;;4.57;3.07;;;2.30;99.90;;;;;;5030645;28;20071;-52
2022/04/11 03:14:26;;;;;;;6.47;2.42;;;2.20;99.90;;;;;;5044618;28;20112;-50
2022/04/11 03:16:52;;;;;;;9.07;2.70;;;2.20;99.90;;;;;;5048046;28;20529;-50
2022/04/11 03:19:17;;;;;;;9.33;3.53;;;2.30;99.90;;;;;;5048893;28;20037;-52
2022/04/11 03:21:43;;;;;;;2.67;2.47;;;2.30;99.90;;;;;;5049097;28;20395;-53
2022/04/11 03:24:09;;;;;;;3.03;2.07;;;2.30;99.90;;;;;;5039503;28;20171;-50
2022/04/11 03:26:34;;;;;;;7.87;2.23;;;2.30;99.90;;;;;;5049898;28;20290;-50
2022/04/11 03:29:00;;;;;;;5.77;3.03;;;2.30;99.90;;;;;;5047811;28;20048;-52
2022/04/11 03:31:25;;;;;;;7.30;2.03;;;2.30;99.90;;;;;;5049859;28;20410;-51
2022/04/11 03:33:51;;;;;;;2.70;2.50;;;2.30;99.90;;;;;;5042382;28;20514;-52
2022/04/11 03:36:17;;;;;;;2.72;2.38;;;2.20;99.90;;;;;;5028665;28;20402;-52
2022/04/11 03:38:42;;;;;;;5.97;2.77;;;2.20;99.90;;;;;;5031140;28;20045;-52
2022/04/11 03:41:08;;;;;;;4.33;3.47;;;2.20;99.90;;;;;;5030074;28;20483;-53
2022/04/11 03:43:34;;;;;;;4.05;2.75;;;2.20;99.90;;;;;;5034175;28;20041;-51
2022/04/11 03:45:59;;;;;;;7.90;3.30;;;2.20;99.90;;;;;;5049699;28;20127;-52
2022/04/11 03:48:25;;;;;;;4.93;2.93;;;2.20;99.90;;;;;;5048142;28;20083;-50
2022/04/11 03:50:51;;;;;;;3.97;2.50;;;2.20;99.90;;;;;;5049370;28;20387;-51
2022/04/11 03:53:16;;;;;;;4.18;2.80;;;2.20;99.90;;;;;;5048522;28;20593;-51
2022/04/11 03:55:42;;;;;;;7.00;2.73;;;2.10;99.90;;;;;;5029690;28;20109;-52
2022/04/11 03:58:08;;;;;;;5.43;3.08;;;2.20;99.90;;;;;;5030136;28;20049;-50
2022/04/11 04:00:34;;;;;;;7.45;3.70;;;2.20;99.90;;;;;;5031346;28;20046;-50
2022/04/11 04:03:11;;;;;;;4.83;2.30;;;2.20;99.90;;;;;;5029790;28;20049;-49
2022/04/11 04:05:44;;;;;;;6.05;2.78;;;2.20;99.90;;;;;;5031876;28;20033;-50
2022/04/11 04:08:11;;;;;;;2.58;2.38;;;2.20;99.90;;;;;;5029803;28;20105;-49
2022/04/11 04:10:37;;;;;;;3.53;3.17;;;2.20;99.90;;;;;;5032230;28;20036;-49
2022/04/11 04:13:03;;;;;;;5.60;2.03;;;2.20;99.90;;;;;;5029624;28;20029;-49
2022/04/11 04:15:29;;;;;;;9.20;2.33;;;2.20;99.90;;;;;;5043763;28;20405;-50
2022/04/11 04:17:56;;;;;;;3.13;2.10;;;2.30;99.90;;;;;;5049678;28;20476;-50
2022/04/11 04:20:21;;;;;;;5.85;2.38;;;2.30;99.90;;;;;;5032882;28;20294;-50
2022/04/11 04:22:47;;;;;;;4.73;2.87;;;2.30;99.90;;;;;;5029331;28;20116;-50
2022/04/11 04:25:13;;;;;;;6.00;2.27;;;2.30;99.90;;;;;;5030248;28;20033;-52
2022/04/11 04:27:38;;;;;;;6.47;2.77;;;2.30;99.90;;;;;;5029235;28;20046;-49
2022/04/11 04:30:07;;;;;;;7.30;2.73;;;2.30;99.90;;;;;;5030977;28;20121;-50
2022/04/11 04:32:33;;;;;;;6.45;2.50;;;2.40;99.90;;;;;;5029048;28;20073;-49
2022/04/11 04:34:59;;;;;;;4.03;2.17;;;2.40;99.90;;;;;;5039222;28;20152;-49
2022/04/11 04:37:25;;;;;;;5.78;1.83;;;2.40;99.90;;;;;;5049517;28;20064;-50
2022/04/11 04:39:50;;;;;;;2.60;1.90;;;2.40;99.90;;;;;;5046922;28;20041;-50
2022/04/11 04:42:21;;;;;;;2.33;2.13;;;2.40;99.90;;;;;;5047539;28;20049;-49
2022/04/11 04:44:46;;;;;;;5.03;2.15;;;2.40;99.90;;;;;;5040636;28;20037;-49
2022/04/11 04:47:12;;;;;;;3.87;2.57;;;2.40;99.90;;;;;;5031051;28;20572;-49
2022/04/11 04:49:37;;;;;;;2.27;2.07;;;2.40;99.90;;;;;;5038468;28;20499;-50
2022/04/11 04:52:04;;;;;;;3.47;2.80;;;2.50;99.90;;;;;;5040488;28;20038;-50
2022/04/11 04:54:29;;;;;;;;;;;2.50;99.90;;;;;;5043347;28;20029;-51
2022/04/11 04:56:55;;;;;;;5.13;2.70;;;2.50;99.90;;;;;;5032729;28;20418;-50
2022/04/11 04:59:20;;;;;;;3.30;2.83;;;2.50;99.90;;;;;;5034476;28;20103;-49
2022/04/11 05:01:46;;;;;;;3.23;2.80;;;2.50;99.90;;;;;;5050567;28;20043;-50
2022/04/11 05:04:11;;;;;;;9.03;2.80;;;2.60;99.90;;;;;;5051009;28;20053;-53
2022/04/11 05:06:37;;;;;;;2.37;1.90;;;2.60;99.90;;;;;;5032281;28;20091;-52
2022/04/11 05:09:03;;;;;;;3.53;2.40;;;2.60;99.90;;;;;;5042661;28;20044;-51
2022/04/11 05:11:28;;;;;;;3.97;2.58;;;2.60;99.90;;;;;;5045441;28;20525;-49
2022/04/11 05:13:54;;;;;;;4.67;2.27;;;2.60;99.90;;;;;;5048711;28;20042;-49
2022/04/11 05:16:19;;;;;;;3.87;2.83;;;2.60;99.90;;;;;;5050186;28;20045;-50
2022/04/11 05:18:45;;;;;;;3.53;2.93;;;2.70;99.90;;;;;;5047258;28;20041;-50
2022/04/11 05:21:11;;;;;;;5.57;2.25;;;2.60;99.90;;;;;;5038787;28;20041;-49
2022/04/11 05:23:37;;;;;;;4.32;2.85;;;2.70;99.90;;;;;;5043263;28;20032;-50
2022/04/11 05:26:05;;;;;;;3.67;2.73;;;2.70;99.90;;;;;;5039913;28;20406;-49
2022/04/11 05:28:32;;;;;;;6.50;3.38;;;2.70;99.90;;;;;;5037725;28;20045;-50
2022/04/11 05:30:58;;;;;;;4.93;3.03;;;2.70;99.90;;;;;;5046769;28;20031;-49
2022/04/11 05:33:23;;;;;;;5.68;3.50;;;2.70;99.90;;;;;;5037521;28;20428;-49
2022/04/11 05:35:49;;;;;;;7.17;3.73;;;2.80;99.90;;;;;;5037443;28;20038;-50
2022/04/11 05:38:16;;;;;;;3.63;3.27;;;2.80;99.90;;;;;;5042714;28;20071;-51
2022/04/11 05:40:43;;;;;;;4.20;3.50;;;2.70;99.90;;;;;;5046111;28;20303;-50
2022/04/11 05:43:08;;;;;;;5.95;4.35;;;2.80;99.90;;;;;;5041055;28;20033;-50
2022/04/11 05:45:35;;;;;;;6.93;3.27;;;2.80;99.90;;;;;;5048441;28;20041;-51
2022/04/11 05:48:00;;;;;;;;;;;2.80;99.90;;;;;;5033650;28;20045;-53
2022/04/11 05:50:26;;;;;;;5.13;3.65;;;2.80;99.90;;;;;;5046831;28;19916;-50
2022/04/11 05:52:51;;;;;;;9.00;4.50;;;2.90;99.90;;;;;;5038894;28;20069;-50
2022/04/11 05:55:17;;;;;;;4.80;4.37;;;2.90;99.90;;;;;;5048722;28;20060;-51
2022/04/11 05:57:43;;;;;;;4.77;4.00;;;2.90;99.90;;;;;;5050412;28;20506;-52
2022/04/11 06:00:09;;;;;;;8.18;5.00;;;3.00;99.90;;;;;;5042035;28;20048;-50
2022/04/11 06:02:34;;;;;;;8.85;5.00;;;3.00;99.90;;;;;;5031757;28;20045;-50
2022/04/11 06:05:00;;;;;;;9.20;5.90;;;3.00;99.90;;;;;;5039056;28;20033;-49
2022/04/11 06:07:27;;;;;;;10.13;6.47;;;3.10;99.90;;;;;;5050837;28;20051;-50
2022/04/11 06:09:53;;;;;;;8.88;6.05;;;3.10;99.90;;;;;;5045443;28;20104;-49
2022/04/11 06:12:20;;;;;;;6.15;5.53;;;3.10;99.90;;;;;;5033766;28;20108;-50
2022/04/11 06:14:46;;;;;;;6.40;5.80;;;3.20;99.90;;;;;;5031529;28;20522;-51
2022/04/11 06:17:12;;;;;;;8.18;5.57;;;3.20;99.90;;;;;;5031569;28;20045;-48
2022/04/11 06:19:37;;;;;;;8.70;6.03;;;3.30;99.90;;;;;;5044340;28;20033;-49
2022/04/11 06:22:03;;;;;;;9.80;6.27;;;3.30;99.90;;;;;;5031091;28;20411;-49
2022/04/11 06:24:29;;;;;;;9.32;5.97;;;3.40;99.90;;;;;;5044648;28;20406;-50
2022/04/11 06:26:54;;;;;;;7.87;5.53;;;3.40;99.90;;;;;;5051367;28;20528;-50
2022/04/11 06:29:20;;;;;;;6.27;5.60;;;3.50;99.90;;;;;;5040059;28;20041;-50
2022/04/11 06:31:45;;;;;;;9.83;6.23;;;3.50;99.90;;;;;;5041403;28;20083;-50
2022/04/11 06:34:11;;;;;;;8.63;5.47;;;3.60;99.90;;;;;;5034695;28;20033;-49
2022/04/11 06:36:36;;;;;;;15.90;6.77;;;3.60;99.90;;;;;;5041942;28;20490;-50
2022/04/11 06:39:02;;;;;;;7.20;6.03;;;3.70;99.90;;;;;;5048888;28;20044;-48
2022/04/11 06:41:28;;;;;;;11.43;4.85;;;3.70;99.90;;;;;;5035462;28;20051;-50
2022/04/11 06:43:53;;;;;;;10.63;5.87;;;3.80;99.90;;;;;;5045934;28;20516;-50
2022/04/11 06:46:19;;;;;;;5.70;5.00;;;3.90;99.90;;;;;;5037197;28;20037;-50
2022/04/11 06:48:44;;;;;;;8.53;4.47;;;4.00;99.90;;;;;;5035554;28;20045;-51
2022/04/11 06:51:10;;;;;;;14.23;6.17;;;4.10;99.90;;;;;;5046495;28;20136;-51
2022/04/11 06:53:36;;;;;;;10.33;5.57;;;4.30;99.90;;;;;;5038769;28;20037;-50
2022/04/11 06:56:01;;;;;;;6.40;4.83;;;4.30;99.90;;;;;;5047906;28;20078;-51
2022/04/11 06:58:27;;;;;;;54.70;6.70;;;4.40;99.90;;;;;;5039493;28;20052;-53
2022/04/11 07:00:52;;;;;;;13.63;5.83;;;4.50;99.90;;;;;;5045656;28;20068;-50
2022/04/11 07:03:18;;;;;;;9.33;4.87;;;4.60;99.90;;;;;;5041775;28;20048;-50
2022/04/11 07:05:43;;;;;;;10.53;4.80;;;4.70;99.90;;;;;;5047408;28;20055;-50
2022/04/11 07:08:09;;;;;;;11.03;4.33;;;4.80;99.90;;;;;;5046011;28;20033;-50
2022/04/11 07:10:37;;;;;;;11.53;4.97;;;4.90;99.90;;;;;;5049117;28;20040;-50
2022/04/11 07:13:02;;;;;;;11.57;5.13;;;5.00;99.90;;;;;;5044771;28;20033;-49
2022/04/11 07:15:28;;;;;;;18.10;5.17;;;5.10;99.90;;;;;;5031847;28;20033;-49
2022/04/11 07:17:53;;;;;;;15.27;5.77;;;5.20;99.90;;;;;;5041553;28;20064;-49
2022/04/11 07:20:19;;;;;;;7.57;4.20;;;5.30;99.90;;;;;;5044624;28;20041;-48
2022/04/11 07:22:44;;;;;;;6.33;4.27;;;5.30;99.90;;;;;;5030076;28;20052;-51
2022/04/11 07:25:10;;;;;;;6.13;4.57;;;5.40;99.90;;;;;;5045016;28;20288;-48
2022/04/11 07:27:36;;;;;;;9.75;4.88;;;5.50;99.90;;;;;;5046670;28;20055;-52
2022/04/11 07:30:03;;;;;;;6.03;4.47;;;5.50;99.90;;;;;;5048157;28;20564;-49
2022/04/11 07:32:29;;;;;;;6.90;4.78;;;5.60;99.90;;;;;;5035351;28;20493;-49
2022/04/11 07:34:57;;;;;;;6.40;4.53;;;5.60;99.90;;;;;;5041644;28;20047;-53
2022/04/11 07:37:25;;;;;;;8.98;4.70;;;5.70;99.90;;;;;;5050075;28;20464;-49
2022/04/11 07:39:51;;;;;;;7.57;4.95;;;5.80;99.90;;;;;;5048053;28;20504;-50
2022/04/11 07:42:17;;;;;;;13.05;4.65;;;5.80;99.90;;;;;;5042715;28;20041;-53
2022/04/11 07:44:43;;;;;;;8.32;5.55;;;5.90;99.90;;;;;;5029799;28;20037;-53
2022/04/11 07:47:09;;;;;;;6.28;4.57;;;5.90;99.90;;;;;;5029528;28;20041;-53
2022/04/11 07:49:34;;;;;;;10.47;5.77;;;5.90;99.90;;;;;;5034101;28;20036;-51
2022/04/11 07:52:00;;;;;;;7.80;5.50;;;6.00;99.90;;;;;;5035139;28;20036;-50
2022/04/11 07:54:25;;;;;;;13.93;5.30;;;6.00;99.90;;;;;;5039713;28;20490;-49
2022/04/11 07:56:51;;;;;;;8.90;5.10;;;6.00;99.90;;;;;;5048330;28;20041;-50
2022/04/11 07:59:17;;;;;;;6.43;5.80;;;6.10;99.90;;;;;;5049693;28;20037;-50
2022/04/11 08:01:42;;;;;;;10.30;6.47;;;6.10;99.90;;;;;;5044752;28;20048;-53
2022/04/11 08:04:08;;;;;;;7.60;5.83;;;6.20;99.90;;;;;;5049227;28;20041;-53
2022/04/11 08:06:33;;;;;;;8.40;5.83;;;6.20;99.90;;;;;;5030437;28;20119;-49
2022/04/11 08:08:59;;;;;;;11.70;7.10;;;6.30;99.90;;;;;;5023028;28;20056;-49
2022/04/11 08:11:25;;;;;;;12.13;7.07;;;6.30;99.90;;;;;;5030664;28;20080;-49
2022/04/11 08:13:51;;;;;;;11.02;6.97;;;6.40;99.90;;;;;;5036550;28;20112;-52
2022/04/11 08:16:17;;;;;;;8.30;6.38;;;6.40;99.90;;;;;;5028114;28;20041;-50
2022/04/11 08:18:43;;;;;;;22.60;7.25;;;6.50;99.90;;;;;;5027298;28;20495;-50
2022/04/11 08:21:09;;;;;;;12.67;6.03;;;6.60;99.90;;;;;;5032563;28;20402;-52
2022/04/11 08:23:34;;;;;;;8.43;5.97;;;6.60;99.90;;;;;;5039330;28;20057;-50
2022/04/11 08:26:00;;;;;;;6.90;6.20;;;6.70;99.90;;;;;;5031990;28;20266;-50
2022/04/11 08:28:25;;;;;;;11.10;6.17;;;6.80;99.90;;;;;;5027849;28;20300;-50
2022/04/11 08:30:51;;;;;;;11.80;6.83;;;6.90;99.90;;;;;;5031229;28;20037;-49
2022/04/11 08:33:17;;;;;;;10.07;6.72;;;7.00;99.90;;;;;;5034141;28;20064;-50
2022/04/11 08:35:42;;;;;;;11.57;7.47;;;7.10;99.90;;;;;;5044926;28;20086;-52
2022/04/11 08:38:08;;;;;;;14.85;7.82;;;7.20;99.90;;;;;;5040168;28;20069;-49
2022/04/11 08:40:35;;;;;;;7.10;5.93;;;7.30;99.90;;;;;;5043270;28;20033;-50
2022/04/11 08:43:02;;;;;;;8.35;6.35;;;7.40;99.90;;;;;;5036827;28;20041;-49
2022/04/11 08:45:29;;;;;;;14.40;7.57;;;7.50;99.90;;;;;;5034619;28;20055;-49
2022/04/11 08:47:56;;;;;;;13.85;7.38;;;7.70;99.90;;;;;;5037584;28;20631;-50
2022/04/11 08:50:24;;;;;;;11.88;8.35;;;7.70;99.90;;;;;;5034063;28;20514;-49
2022/04/11 08:52:50;;;;;;;12.15;6.65;;;7.90;99.90;;;;;;5036991;28;20525;-50
2022/04/11 08:55:16;;;;;;;7.50;6.13;;;8.00;99.90;;;;;;5033233;28;20108;-50
2022/04/11 08:57:42;;;;;;;9.93;6.80;;;8.10;99.90;;;;;;5029021;28;20181;-50
2022/04/11 09:00:11;;;;;;;13.43;7.00;;;8.20;99.90;;;;;;5033063;28;20041;-50
2022/04/11 09:02:37;;;;;;;6.72;5.82;;;8.40;99.90;;;;;;5039733;28;20398;-50
2022/04/11 09:05:04;;;;;;;9.18;6.53;;;8.50;99.90;;;;;;5031669;28;20033;-51
2022/04/11 09:08:05;;;;;;;;;;;8.70;99.90;;;;;;5041361;28;20556;-50
2022/04/11 09:10:37;;;;;;;9.90;6.53;;;8.80;99.90;;;;;;5017938;28;19964;-49
2022/04/11 09:13:05;;;;;;;13.35;7.10;;;9.00;99.90;;;;;;5033086;28;20053;-52
2022/04/11 09:15:41;;;;;;;12.18;7.25;;;9.20;99.90;;;;;;5036913;28;20033;-50
2022/04/11 09:18:07;;;;;;;9.45;5.80;;;9.30;99.90;;;;;;5031513;28;20087;-53
2022/04/11 09:20:32;;;;;;;7.40;5.67;;;9.40;99.90;;;;;;5043375;28;20041;-50
2022/04/11 09:22:58;;;;;;;10.67;6.10;;;9.50;99.90;;;;;;5039208;28;20103;-50
2022/04/11 09:25:29;;;;;;;15.90;8.45;;;9.70;99.90;;;;;;5037270;28;20132;-52
2022/04/11 09:28:09;;;;;;;14.13;6.30;;;9.80;99.90;;;;;;5042058;28;20044;-53
2022/04/11 09:30:36;;;;;;;17.02;7.45;;;10.00;99.90;;;;;;5042377;28;20041;-51
2022/04/11 09:33:04;;;;;;;7.53;6.53;;;10.10;99.90;;;;;;5025731;28;20398;-51
2022/04/11 09:35:34;;;;;;;8.57;5.45;;;10.20;99.00;;;;;;5035378;28;20124;-51
2022/04/11 09:38:16;;;;;;;6.28;5.07;;;10.30;98.60;;;;;;5030991;28;20529;-51
2022/04/11 09:40:55;;;;;;;7.18;4.50;;;10.40;96.70;;;;;;5030648;28;20077;-52
2022/04/11 09:43:31;;;;;;;6.72;4.78;;;10.50;95.90;;;;;;5035179;28;20783;-50
2022/04/11 09:45:59;;;;;;;6.65;4.90;;;10.70;95.10;;;;;;5037887;28;20590;-51
2022/04/11 09:48:37;;;;;;;5.93;4.60;;;10.70;95.40;;;;;;5034681;28;20710;-55
2022/04/11 09:51:09;;;;;;;6.88;4.50;;;10.80;94.20;;;;;;5041239;28;20048;-54
2022/04/11 09:53:35;;;;;;;7.95;4.95;;;10.90;93.50;;;;;;5036479;28;20044;-54
2022/04/11 09:56:08;;;;;;;8.35;4.90;;;11.00;93.20;;;;;;5034126;28;20037;-54
2022/04/11 09:58:35;;;;;;;6.82;4.68;;;11.10;93.00;;;;;;5032528;28;20477;-52
2022/04/11 10:01:02;;;;;;;7.15;4.90;;;11.20;92.20;;;;;;5030738;28;20076;-54
2022/04/11 10:03:29;;;;;;;6.57;4.10;;;11.30;90.30;;;;;;5032500;28;20033;-53
2022/04/11 10:05:57;;;;;;;7.95;4.85;;;11.30;88.70;;;;;;5030548;28;20395;-52
2022/04/11 10:08:27;;;;;;;7.10;4.97;;;11.40;88.50;;;;;;5036331;28;20045;-54
2022/04/11 10:10:55;;;;;;;6.38;5.03;;;11.40;86.00;;;;;;5036069;28;20052;-53
2022/04/11 10:13:21;;;;;;;10.88;6.07;;;11.50;88.40;;;;;;5027293;28;20037;-50
2022/04/11 10:15:51;;;;;;;6.45;4.57;;;11.60;90.00;;;;;;5026555;28;20047;-49
2022/04/11 10:18:27;;;;;;;6.78;5.15;;;11.60;87.90;;;;;;5028796;28;20087;-51
2022/04/11 10:20:57;;;;;;;9.43;5.17;;;11.70;89.20;;;;;;5038904;28;20096;-53
2022/04/11 10:23:28;;;;;;;8.52;5.68;;;11.70;87.50;;;;;;5034853;28;20363;-52
2022/04/11 10:25:57;;;;;;;6.90;4.78;;;11.80;88.10;;;;;;5030362;28;20375;-52
2022/04/11 10:28:24;;;;;;;11.75;5.10;;;11.90;87.40;;;;;;5034459;28;20099;-51
2022/04/11 10:31:04;;;;;;;10.27;5.25;;;12.00;87.40;;;;;;5034101;28;20048;-51
2022/04/11 10:33:50;;;;;;;7.50;5.28;;;12.10;85.70;;;;;;5043434;28;20087;-51
2022/04/11 10:36:26;;;;;;;10.15;5.10;;;12.20;86.70;;;;;;5038207;28;20055;-50
2022/04/11 10:39:18;;;;;;;8.57;4.90;;;12.30;88.40;;;;;;5026602;28;20045;-54
2022/04/11 10:41:58;;;;;;;7.45;4.63;;;12.40;85.70;;;;;;5040018;28;20041;-51
2022/04/11 10:44:35;;;;;;;9.55;5.78;;;12.40;82.90;;;;;;5025699;28;20049;-50
2022/04/11 10:47:10;;;;;;;14.45;6.35;;;12.40;85.10;;;;;;5036044;28;20136;-52
2022/04/11 10:49:50;;;;;;;11.80;6.07;;;12.50;84.40;;;;;;5043211;28;20151;-54
2022/04/11 10:52:37;;;;;;;5.97;4.50;;;12.60;84.40;;;;;;5027283;28;20030;-51
2022/04/11 10:55:05;;;;;;;;;;;12.60;78.50;;;;;;5032905;28;20363;-53
2022/04/11 10:57:35;;;;;;;9.75;6.82;;;12.60;79.40;;;;;;5033835;28;21169;-52
2022/04/11 11:00:15;;;;;;;8.00;5.00;;;12.60;81.60;;;;;;5035066;28;20107;-50
2022/04/11 11:02:52;;;;;;;8.88;5.38;;;12.70;79.20;;;;;;5026917;28;20589;-54
2022/04/11 11:05:50;;;;;;;13.15;6.50;;;12.70;78.00;;;;;;5038040;28;20040;-54
2022/04/11 11:08:17;;;;;;;6.75;5.65;;;12.80;81.90;;;;;;5042797;28;20450;-50
2022/04/11 11:10:52;;;;;;;8.38;5.55;;;12.80;76.50;;;;;;5041021;28;20075;-53
2022/04/11 11:13:27;;;;;;;11.32;6.15;;;12.90;83.00;;;;;;5037797;28;20041;-53
2022/04/11 11:16:03;;;;;;;9.70;6.13;;;12.90;76.70;;;;;;5040109;28;20363;-51
2022/04/11 11:18:49;;;;;;;11.38;5.43;;;12.90;72.00;;;;;;5039684;28;20045;-52
2022/04/11 11:21:15;;;;;;;9.25;5.38;;;12.90;68.70;;;;;;5026555;28;20293;-53
2022/04/11 11:23:41;;;;;;;9.65;5.45;;;12.90;71.30;;;;;;5028759;28;20041;-54
2022/04/11 11:26:12;;;;;;;7.43;5.63;;;12.90;72.60;;;;;;5044949;28;20047;-55
2022/04/11 11:28:41;;;;;;;10.30;6.60;;;13.00;71.50;;;;;;5025412;28;20067;-52
2022/04/11 11:31:06;;;;;;;9.88;6.15;;;12.90;70.50;;;;;;5030878;28;20041;-52
2022/04/11 11:33:32;;;;;;;10.70;6.90;;;13.00;70.20;;;;;;5038379;28;20029;-53
2022/04/11 11:35:58;;;;;;;8.00;6.43;;;13.00;68.80;;;;;;5035773;28;20542;-52
2022/04/11 11:38:26;;;;;;;9.63;7.45;;;13.00;71.10;;;;;;5027188;28;20132;-50
2022/04/11 11:40:56;;;;;;;8.63;7.55;;;13.00;71.90;;;;;;5035344;28;20564;-51
2022/04/11 11:43:24;;;;;;;10.00;7.15;;;13.10;71.90;;;;;;5033495;28;20049;-51
2022/04/11 11:45:50;;;;;;;11.75;7.57;;;13.10;70.80;;;;;;5036085;28;20040;-51
2022/04/11 11:48:29;;;;;;;11.27;7.60;;;13.10;70.20;;;;;;5025618;28;20045;-52
2022/04/11 11:50:57;;;;;;;10.38;7.38;;;13.20;71.80;;;;;;5026465;28;20116;-53
2022/04/11 11:53:42;;;;;;;9.88;7.22;;;13.20;68.90;;;;;;5027232;28;20052;-50
2022/04/11 11:56:08;;;;;;;11.32;7.60;;;13.30;69.60;;;;;;5024737;28;20098;-50
2022/04/11 11:58:40;;;;;;;8.02;7.25;;;13.40;68.60;;;;;;5031714;28;20054;-50
2022/04/11 12:01:10;;;;;;;7.93;7.05;;;13.50;69.00;;;;;;5033365;28;20103;-53
2022/04/11 12:06:26;;;;;;;10.75;6.35;;;13.60;70.80;;;;;;5029331;28;20510;-53
2022/04/11 12:08:56;;;;;;;7.28;6.50;;;13.60;65.70;;;;;;5027609;28;20111;-53
2022/04/11 12:11:24;;;;;;;11.82;6.82;;;13.60;66.00;;;;;;5026931;28;20052;-52
2022/04/11 12:14:02;;;;;;;8.95;7.10;;;13.50;67.00;;;;;;5033837;28;20040;-50
2022/04/11 12:16:29;;;;;;;9.68;8.55;;;13.60;71.70;;;;;;5032093;28;20323;-54
2022/04/11 12:18:57;;;;;;;7.75;6.78;;;13.60;68.50;;;;;;5036236;28;20041;-54
2022/04/11 12:21:36;;;;;;;9.63;7.18;;;13.60;69.00;;;;;;5028807;28;20060;-54
2022/04/11 12:24:04;;;;;;;8.25;7.35;;;13.60;66.50;;;;;;5030124;28;20585;-53
2022/04/11 12:26:40;;;;;;;9.02;7.63;;;13.60;68.20;;;;;;5028818;28;20279;-54
2022/04/11 12:29:14;;;;;;;12.23;7.15;;;13.70;66.10;;;;;;5027359;28;20049;-51
2022/04/11 12:31:57;;;;;;;10.60;6.82;;;13.80;67.50;;;;;;5034070;28;20033;-52
2022/04/11 12:34:38;;;;;;;10.35;6.82;;;13.90;67.60;;;;;;5032716;28;20041;-51
2022/04/11 12:37:08;;;;;;;8.88;7.40;;;13.90;66.00;;;;;;5022886;28;20103;-51
2022/04/11 12:39:50;;;;;;;13.27;7.95;;;13.90;68.60;;;;;;5035327;28;20032;-51
2022/04/11 12:42:24;;;;;;;10.88;7.88;;;13.80;66.40;;;;;;5036887;28;20040;-51
2022/04/11 12:45:01;;;;;;;12.60;8.10;;;13.80;66.40;;;;;;5028512;28;20037;-53
2022/04/11 12:47:27;;;;;;;8.80;7.90;;;13.90;67.00;;;;;;5035877;28;20053;-53
2022/04/11 12:49:57;;;;;;;9.73;7.47;;;14.00;67.30;;;;;;5031007;28;20056;-51
2022/04/11 12:52:25;;;;;;;10.18;8.02;;;14.10;66.40;;;;;;5033677;28;20045;-51
2022/04/11 12:55:01;;;;;;;8.52;7.15;;;14.10;66.90;;;;;;5024843;28;20117;-52
2022/04/11 12:57:30;;;;;;;9.40;8.43;;;14.20;66.60;;;;;;5031015;28;20037;-53
2022/04/11 12:59:56;;;;;;;13.23;9.35;;;14.20;66.50;;;;;;5028338;28;20540;-53